createdAt,value
2018-04-17T00:00:50.789Z,13.6
2018-04-17T00:05:50.812Z,13.6
2018-04-17T00:10:50.802Z,13.6
2018-04-17T00:15:50.815Z,13.6
2018-04-17T00:20:50.819Z,13.5
2018-04-17T00:25:50.816Z,13.6
2018-04-17T00:30:50.828Z,13.6
2018-04-17T00:35:50.827Z,13.5
2018-04-17T00:40:50.827Z,13.5
2018-04-17T00:45:50.827Z,13.5
2018-04-17T00:50:54.030Z,13.5
2018-04-17T00:55:53.757Z,13.3
2018-04-17T01:01:07.635Z,13.3
2018-04-17T01:06:07.576Z,13.3
2018-04-17T01:11:07.373Z,13.1
2018-04-17T01:16:07.358Z,13.1
2018-04-17T01:21:07.606Z,13.1
2018-04-17T01:26:07.336Z,13
2018-04-17T01:31:07.549Z,13
2018-04-17T01:36:09.211Z,13.1
2018-04-17T01:41:08.913Z,13
2018-04-17T01:46:21.596Z,13
2018-04-17T01:51:21.510Z,13
2018-04-17T01:56:21.344Z,12.9
2018-04-17T02:01:21.334Z,12.8
2018-04-17T02:06:21.291Z,12.8
2018-04-17T02:11:21.343Z,12.9
2018-04-17T02:16:21.464Z,12.8
2018-04-17T02:21:21.501Z,12.9
2018-04-17T02:26:21.331Z,12.8
2018-04-17T02:31:21.324Z,12.8
2018-04-17T02:36:21.508Z,12.7
2018-04-17T02:41:21.541Z,12.8
2018-04-17T02:46:23.596Z,12.6
2018-04-17T02:51:23.521Z,12.6
2018-04-17T02:56:33.828Z,12.5
2018-04-17T03:01:33.527Z,12.3
2018-04-17T03:06:33.680Z,12.4
2018-04-17T03:11:33.553Z,12.4
2018-04-17T03:16:33.548Z,12.3
2018-04-17T03:21:33.543Z,12.3
2018-04-17T03:26:33.552Z,12.1
2018-04-17T03:31:35.434Z,12.1
2018-04-17T03:36:35.311Z,11.9
2018-04-17T03:41:45.466Z,11.9
2018-04-17T03:46:45.194Z,11.7
2018-04-17T03:51:45.205Z,11.6
2018-04-17T03:56:45.206Z,11.6
2018-04-17T04:01:45.199Z,11.6
2018-04-17T04:06:45.218Z,11.5
2018-04-17T04:11:45.190Z,11.3
2018-04-17T04:16:45.242Z,11.4
2018-04-17T04:21:45.379Z,11.2
2018-04-17T04:26:45.181Z,11.1
2018-04-17T04:31:45.425Z,11
2018-04-17T04:36:45.240Z,11.1
2018-04-17T04:41:48.147Z,11
2018-04-17T04:46:47.895Z,11.1
2018-04-17T04:51:58.466Z,10.9
2018-04-17T04:56:58.217Z,11
2018-04-17T05:01:58.196Z,11.1
2018-04-17T05:06:58.348Z,11.1
2018-04-17T05:11:58.218Z,11.2
2018-04-17T05:16:58.225Z,11.3
2018-04-17T05:21:58.373Z,11.4
2018-04-17T05:27:00.082Z,11.6
2018-04-17T05:31:59.742Z,11.7
2018-04-17T05:37:12.507Z,11.8
2018-04-17T05:42:12.423Z,12
2018-04-17T05:47:12.240Z,12.3
2018-04-17T05:52:12.333Z,12.6
2018-04-17T05:57:12.216Z,12.6
2018-04-17T06:02:12.208Z,12.7
2018-04-17T06:07:12.241Z,12.9
2018-04-17T06:12:12.230Z,12.9
2018-04-17T06:17:12.273Z,13
2018-04-17T06:22:12.380Z,13.2
2018-04-17T06:27:12.384Z,13.2
2018-04-17T06:32:12.392Z,13.6
2018-04-17T06:37:14.450Z,13.4
2018-04-17T06:42:14.182Z,13.3
2018-04-17T06:47:24.867Z,13.1
2018-04-17T06:52:24.764Z,13.1
2018-04-17T06:57:24.614Z,13.1
2018-04-17T07:02:24.838Z,13.2
2018-04-17T07:07:24.601Z,13.2
2018-04-17T07:12:24.819Z,13.5
2018-04-17T07:17:24.824Z,13.8
2018-04-17T07:22:24.633Z,14
2018-04-17T07:27:24.618Z,14.1
2018-04-17T07:32:38.014Z,14.5
2018-04-17T07:37:37.773Z,14.7
2018-04-17T07:42:37.907Z,15
2018-04-17T07:47:37.766Z,15.3
2018-04-17T07:52:37.759Z,15.4
2018-04-17T07:57:37.740Z,15.6
2018-04-17T08:02:37.746Z,16.5
2018-04-17T08:07:37.960Z,17
2018-04-17T08:12:37.755Z,17.4
2018-04-17T08:17:37.759Z,17.7
2018-04-17T08:22:38.014Z,17.6
2018-04-17T08:27:37.762Z,18.1
2018-04-17T08:32:39.579Z,18.2
2018-04-17T08:37:39.320Z,17.9
2018-04-17T08:42:51.804Z,17.1
2018-04-17T08:47:51.530Z,17.2
2018-04-17T08:52:51.783Z,17.4
2018-04-17T08:57:51.491Z,18.5
2018-04-17T09:02:51.748Z,17.8
2018-04-17T09:07:51.562Z,17.8
2018-04-17T09:12:51.556Z,17.7
2018-04-17T09:17:51.545Z,17.8
2018-04-17T09:22:51.551Z,17.4
2018-04-17T09:28:07.130Z,17.8
2018-04-17T09:33:04.057Z,18.2
2018-04-17T09:38:04.278Z,18
2018-04-17T09:43:04.056Z,18.5
2018-04-17T09:48:04.272Z,18.9
2018-04-17T09:53:04.067Z,18.4
2018-04-17T09:58:04.190Z,19.1
2018-04-17T10:03:04.773Z,19.8
2018-04-17T10:08:04.669Z,19.5
2018-04-17T10:13:17.182Z,18.5
2018-04-17T10:18:16.888Z,18.7
2018-04-17T10:23:16.921Z,19.2
2018-04-17T10:28:16.918Z,19.9
2018-04-17T10:33:17.156Z,19.5
2018-04-17T10:38:17.685Z,20.2
2018-04-17T10:43:17.556Z,19.1
2018-04-17T10:48:17.451Z,19.2
2018-04-17T10:53:17.575Z,20
2018-04-17T10:58:17.439Z,20.4
2018-04-17T11:03:17.458Z,20.4
2018-04-17T11:08:18.597Z,20.5
2018-04-17T11:13:21.328Z,19.9
2018-04-17T11:18:21.073Z,20.8
2018-04-17T11:23:33.650Z,20.6
2018-04-17T11:28:33.617Z,20.1
2018-04-17T11:33:33.510Z,19.7
2018-04-17T11:38:33.400Z,20.4
2018-04-17T11:43:33.661Z,21
2018-04-17T11:48:33.393Z,21.3
2018-04-17T11:53:33.556Z,21.3
2018-04-17T11:58:34.594Z,21.4
2018-04-17T12:03:33.627Z,21.1
2018-04-17T12:08:33.424Z,20.7
2018-04-17T12:13:33.422Z,21.2
2018-04-17T12:18:33.406Z,21.8
2018-04-17T12:23:34.462Z,21.2
2018-04-17T12:28:34.171Z,20.8
2018-04-17T12:33:47.244Z,21.1
2018-04-17T12:38:47.171Z,21.1
2018-04-17T12:43:46.994Z,21.1
2018-04-17T12:48:47.140Z,21.5
2018-04-17T12:53:47.228Z,21.8
2018-04-17T12:58:47.089Z,21.6
2018-04-17T13:03:47.139Z,20.6
2018-04-17T13:08:47.747Z,20.6
2018-04-17T13:13:47.467Z,20.9
2018-04-17T13:18:59.963Z,21.7
2018-04-17T13:23:59.696Z,21.6
2018-04-17T13:28:59.961Z,21.5
2018-04-17T13:33:59.844Z,20.9
2018-04-17T13:38:59.890Z,21.3
2018-04-17T13:43:59.861Z,21.6
2018-04-17T13:48:59.640Z,21.7
2018-04-17T13:54:00.514Z,21.6
2018-04-17T13:59:00.280Z,21.8
2018-04-17T14:04:12.654Z,22
2018-04-17T14:09:12.369Z,21.9
2018-04-17T14:14:12.401Z,21.6
2018-04-17T14:19:12.341Z,21.9
2018-04-17T14:24:12.392Z,22
2018-04-17T14:29:12.384Z,22.3
2018-04-17T14:34:12.384Z,22.1
2018-04-17T14:39:12.392Z,22.2
2018-04-17T14:44:12.404Z,21.9
2018-04-17T14:49:23.732Z,22
2018-04-17T14:54:23.521Z,21.7
2018-04-17T14:59:23.481Z,21.6
2018-04-17T15:04:23.479Z,21.5
2018-04-17T15:09:23.674Z,21.2
2018-04-17T15:14:23.659Z,20.8
2018-04-17T15:19:23.598Z,20.7
2018-04-17T15:24:24.306Z,20.5
2018-04-17T15:29:24.023Z,20.6
2018-04-17T15:34:37.156Z,20.5
2018-04-17T15:39:36.864Z,20.4
2018-04-17T15:44:36.966Z,20.3
2018-04-17T15:49:36.985Z,20.3
2018-04-17T15:54:36.867Z,20
2018-04-17T15:59:36.893Z,20.1
2018-04-17T16:04:36.994Z,20
2018-04-17T16:09:38.893Z,20.1
2018-04-17T16:14:39.040Z,20.1
2018-04-17T16:19:50.030Z,20
2018-04-17T16:24:49.742Z,19.7
2018-04-17T16:29:49.746Z,19.7
2018-04-17T16:34:49.743Z,19.7
2018-04-17T16:39:49.762Z,19.6
2018-04-17T16:44:49.752Z,19.6
2018-04-17T16:49:49.768Z,19.5
2018-04-17T16:54:49.746Z,19.4
2018-04-17T16:59:49.766Z,19.3
2018-04-17T17:04:49.778Z,19.1
2018-04-17T17:09:49.942Z,19
2018-04-17T17:14:49.996Z,18.8
2018-04-17T17:19:51.778Z,18.6
2018-04-17T17:24:51.488Z,18.4
2018-04-17T17:30:01.603Z,18.3
2018-04-17T17:35:01.507Z,18.2
2018-04-17T17:40:01.606Z,17.8
2018-04-17T17:45:01.340Z,17.8
2018-04-17T17:50:01.470Z,17.5
2018-04-17T17:55:01.361Z,17.4
2018-04-17T18:00:01.474Z,17.4
2018-04-17T18:05:01.719Z,17.3
2018-04-17T18:10:01.369Z,17.1
2018-04-17T18:15:15.703Z,16.9
2018-04-17T18:20:15.615Z,16.7
2018-04-17T18:25:15.643Z,16.6
2018-04-17T18:30:15.706Z,16.5
2018-04-17T18:35:15.752Z,16.4
2018-04-17T18:40:15.756Z,16.2
2018-04-17T18:45:15.673Z,16.1
2018-04-17T18:50:16.540Z,15.9
2018-04-17T18:55:16.486Z,15.9
2018-04-17T19:00:28.956Z,15.7
2018-04-17T19:05:29.909Z,15.6
2018-04-17T19:10:28.869Z,15.5
2018-04-17T19:15:28.879Z,15.4
2018-04-17T19:20:28.805Z,15.2
2018-04-17T19:25:28.682Z,15.2
2018-04-17T19:30:28.684Z,15.1
2018-04-17T19:35:31.342Z,14.8
2018-04-17T19:40:31.052Z,14.8
2018-04-17T19:45:45.271Z,14.7
2018-04-17T19:50:44.999Z,14.6
2018-04-17T19:55:45.004Z,14.6
2018-04-17T20:00:44.977Z,14.5
2018-04-17T20:05:44.993Z,14.5
2018-04-17T20:10:45.117Z,14.3
2018-04-17T20:15:44.969Z,14.2
2018-04-17T20:20:48.057Z,14.2
2018-04-17T20:25:47.796Z,14.2
2018-04-17T20:31:00.009Z,14.1
2018-04-17T20:35:59.753Z,13.9
2018-04-17T20:41:00.852Z,13.9
2018-04-17T20:45:59.898Z,13.9
2018-04-17T20:50:59.952Z,13.9
2018-04-17T20:55:59.741Z,13.8
2018-04-17T21:00:59.760Z,13.7
2018-04-17T21:06:02.334Z,13.7
2018-04-17T21:11:02.218Z,13.6
2018-04-17T21:16:12.393Z,13.5
2018-04-17T21:21:12.243Z,13.4
2018-04-17T21:26:12.154Z,13.4
2018-04-17T21:31:12.190Z,13.2
2018-04-17T21:36:12.187Z,13
2018-04-17T21:41:12.415Z,12.9
2018-04-17T21:46:12.441Z,12.8
2018-04-17T21:51:13.425Z,12.7
2018-04-17T21:56:13.291Z,12.8
2018-04-17T22:01:26.952Z,12.4
2018-04-17T22:06:26.921Z,12.5
2018-04-17T22:11:26.944Z,12.3
2018-04-17T22:16:26.828Z,12.4
2018-04-17T22:21:26.824Z,12.3
2018-04-17T22:26:26.800Z,12.2
2018-04-17T22:31:26.849Z,12
2018-04-17T22:36:28.418Z,12.1
2018-04-17T22:41:28.259Z,12
2018-04-17T22:46:40.581Z,11.9
2018-04-17T22:51:40.426Z,11.8
2018-04-17T22:56:40.553Z,11.8
2018-04-17T23:01:40.455Z,11.6
2018-04-17T23:06:40.532Z,11.5
2018-04-17T23:11:40.316Z,11.5
2018-04-17T23:16:40.464Z,11.4
2018-04-17T23:21:42.906Z,11.3
2018-04-17T23:26:42.790Z,11.2
2018-04-17T23:31:55.514Z,11.2
2018-04-17T23:36:55.374Z,11.1
2018-04-17T23:41:55.384Z,11.1
2018-04-17T23:46:55.391Z,11
2018-04-17T23:51:55.354Z,10.7
2018-04-17T23:56:55.364Z,10.6
